createdAt,value
2023-05-09T00:00:58.172Z,992.80
2023-05-09T00:26:39.166Z,992.55
2023-05-09T00:27:38.206Z,992.56
2023-05-09T00:40:39.396Z,992.44
2023-05-09T00:41:39.317Z,992.41
2023-05-09T00:42:39.359Z,992.41
2023-05-09T00:43:39.365Z,992.45
2023-05-09T00:44:39.123Z,992.45
2023-05-09T00:47:39.679Z,992.45
2023-05-09T00:48:39.117Z,992.45
2023-05-09T00:49:38.938Z,992.39
2023-05-09T00:50:38.855Z,992.43
2023-05-09T00:51:38.772Z,992.40
2023-05-09T00:54:38.537Z,992.38
2023-05-09T00:56:38.384Z,992.37
2023-05-09T00:58:38.105Z,992.33
2023-05-09T00:59:39.211Z,992.29
2023-05-09T01:01:38.246Z,992.29
2023-05-09T01:03:38.339Z,992.20
2023-05-09T01:04:37.961Z,992.20
2023-05-09T01:05:37.474Z,992.19
2023-05-09T01:07:37.570Z,992.17
2023-05-09T01:08:37.444Z,992.17
2023-05-09T01:09:38.264Z,992.15
2023-05-09T01:11:37.410Z,992.12
2023-05-09T01:13:38.173Z,992.13
2023-05-09T01:15:37.166Z,992.15
2023-05-09T01:20:36.313Z,992.14
2023-05-09T01:23:36.096Z,992.10
2023-05-09T01:24:35.990Z,992.11
2023-05-09T01:27:35.725Z,992.06
2023-05-09T01:29:23.125Z,992.05
2023-05-09T01:30:23.048Z,991.98
2023-05-09T01:31:23.142Z,992.01
2023-05-09T01:32:22.947Z,991.99
2023-05-09T01:33:22.813Z,991.95
2023-05-09T01:34:22.739Z,991.97
2023-05-09T01:35:22.661Z,991.98
2023-05-09T01:38:48.213Z,991.94
2023-05-09T01:39:48.135Z,991.90
2023-05-09T01:40:48.059Z,991.91
2023-05-09T01:41:47.977Z,991.94
2023-05-09T01:42:47.910Z,991.94
2023-05-09T01:43:47.833Z,991.95
2023-05-09T01:44:47.751Z,991.97
2023-05-09T01:45:47.665Z,992.01
2023-05-09T01:46:47.953Z,992.01
2023-05-09T01:47:47.532Z,992.01
2023-05-09T01:48:47.465Z,992.03
2023-05-09T01:49:47.350Z,992.03
2023-05-09T01:50:47.315Z,992.04
2023-05-09T01:51:47.190Z,992.08
2023-05-09T01:52:47.316Z,992.05
2023-05-09T02:07:23.718Z,991.91
2023-05-09T02:08:23.521Z,991.91
2023-05-09T02:09:23.448Z,991.88
2023-05-09T02:10:23.369Z,991.83
2023-05-09T02:11:23.349Z,991.80
2023-05-09T02:12:23.263Z,991.78
2023-05-09T02:13:23.281Z,991.77
2023-05-09T02:14:23.061Z,991.68
2023-05-09T02:15:22.980Z,991.69
2023-05-09T02:16:22.923Z,991.64
2023-05-09T02:17:22.816Z,991.63
2023-05-09T02:18:22.742Z,991.60
2023-05-09T02:19:22.658Z,991.57
2023-05-09T02:20:22.580Z,991.59
2023-05-09T02:21:22.505Z,991.63
2023-05-09T02:22:22.638Z,991.59
2023-05-09T02:23:22.675Z,991.62
2023-05-09T02:24:22.463Z,991.56
2023-05-09T02:25:22.217Z,991.61
2023-05-09T02:26:22.427Z,991.62
2023-05-09T02:27:22.030Z,991.62
2023-05-09T02:28:21.945Z,991.60
2023-05-09T02:29:22.119Z,991.62
2023-05-09T02:30:21.793Z,991.63
2023-05-09T02:31:21.720Z,991.65
2023-05-09T02:32:21.633Z,991.72
2023-05-09T02:33:21.754Z,991.71
2023-05-09T02:34:21.476Z,991.70
2023-05-09T02:35:21.636Z,991.71
2023-05-09T02:36:21.360Z,991.73
2023-05-09T02:37:21.256Z,991.73
2023-05-09T02:38:21.370Z,991.70
2023-05-09T02:39:21.287Z,991.65
2023-05-09T02:40:21.332Z,991.67
2023-05-09T02:41:20.969Z,991.60
2023-05-09T02:42:20.858Z,991.58
2023-05-09T02:43:20.798Z,991.60
2023-05-09T02:44:20.920Z,991.59
2023-05-09T02:45:20.855Z,991.57
2023-05-09T02:51:20.138Z,991.52
2023-05-09T03:52:15.353Z,991.20
2023-05-09T03:53:15.278Z,991.20
2023-05-09T03:54:15.205Z,991.20
2023-05-09T03:55:15.353Z,991.19
2023-05-09T03:56:15.181Z,991.20
2023-05-09T03:57:14.967Z,991.19
2023-05-09T03:58:14.885Z,991.17
2023-05-09T03:59:14.876Z,991.16
2023-05-09T04:00:14.735Z,991.14
2023-05-09T04:01:14.652Z,991.13
2023-05-09T04:02:14.639Z,991.15
2023-05-09T04:03:14.568Z,991.17
2023-05-09T04:04:14.434Z,991.13
2023-05-09T04:05:14.555Z,991.16
2023-05-09T04:06:14.261Z,991.14
2023-05-09T04:07:14.578Z,991.15
2023-05-09T04:08:14.121Z,991.10
2023-05-09T04:09:14.024Z,991.10
2023-05-09T04:10:13.948Z,991.07
2023-05-09T04:11:13.869Z,991.10
2023-05-09T04:12:13.912Z,991.08
2023-05-09T04:13:13.729Z,991.07
2023-05-09T04:14:13.633Z,991.07
2023-05-09T04:15:13.899Z,991.09
2023-05-09T04:16:13.555Z,991.11
2023-05-09T04:17:13.399Z,991.09
2023-05-09T04:18:13.322Z,991.07
2023-05-09T04:19:13.245Z,991.08
2023-05-09T04:20:13.262Z,991.05
2023-05-09T04:21:13.084Z,991.05
2023-05-09T04:22:13.010Z,991.08
2023-05-09T04:23:15.584Z,991.11
2023-05-09T04:24:12.884Z,991.07
2023-05-09T04:25:13.393Z,991.14
2023-05-09T04:26:13.336Z,991.10
2023-05-09T04:27:12.654Z,991.10
2023-05-09T04:28:13.210Z,991.09
2023-05-09T04:31:13.097Z,991.14
2023-05-09T04:33:12.488Z,991.13
2023-05-09T04:47:22.477Z,991.16
2023-05-09T04:48:22.248Z,991.08
2023-05-09T04:49:22.312Z,991.10
2023-05-09T04:50:22.093Z,991.08
2023-05-09T04:51:22.005Z,991.08
2023-05-09T04:52:21.928Z,991.07
2023-05-09T04:53:21.873Z,991.10
2023-05-09T04:54:21.780Z,991.04
2023-05-09T04:55:21.692Z,991.02
2023-05-09T04:56:21.619Z,991.04
2023-05-09T04:57:21.556Z,991.05
2023-05-09T04:58:21.461Z,991.03
2023-05-09T04:59:21.426Z,991.02
2023-05-09T05:00:21.346Z,991.00
2023-05-09T05:01:21.343Z,991.00
2023-05-09T05:02:21.210Z,990.96
2023-05-09T05:03:21.230Z,990.96
2023-05-09T05:04:21.021Z,990.93
2023-05-09T05:06:20.876Z,990.92
2023-05-09T05:07:20.796Z,990.92
2023-05-09T05:08:20.685Z,990.90
2023-05-09T05:09:20.807Z,990.93
2023-05-09T05:10:20.530Z,990.93
2023-05-09T05:11:20.510Z,990.88
2023-05-09T05:12:20.726Z,990.89
2023-05-09T05:13:20.450Z,990.91
2023-05-09T05:15:20.174Z,990.85
2023-05-09T05:16:20.161Z,990.88
2023-05-09T05:17:20.036Z,990.84
2023-05-09T05:18:19.910Z,990.84
2023-05-09T05:19:19.956Z,990.85
2023-05-09T05:20:19.788Z,990.82
2023-05-09T05:21:19.970Z,990.85
2023-05-09T05:22:19.928Z,990.82
2023-05-09T05:23:20.068Z,990.85
2023-05-09T05:24:19.459Z,990.81
2023-05-09T05:25:19.396Z,990.79
2023-05-09T05:26:19.325Z,990.81
2023-05-09T05:27:19.255Z,990.81
2023-05-09T05:28:19.134Z,990.75
2023-05-09T05:29:19.098Z,990.75
2023-05-09T05:30:18.983Z,990.78
2023-05-09T05:31:19.288Z,990.74
2023-05-09T05:33:19.144Z,990.77
2023-05-09T05:34:19.082Z,990.78
2023-05-09T05:35:18.859Z,990.77
2023-05-09T05:36:18.557Z,990.79
2023-05-09T05:37:18.890Z,990.79
2023-05-09T05:38:18.403Z,990.80
2023-05-09T05:39:18.630Z,990.80
2023-05-09T05:40:18.420Z,990.77
2023-05-09T05:41:18.130Z,990.75
2023-05-09T05:42:18.511Z,990.73
2023-05-09T05:43:18.181Z,990.70
2023-05-09T05:44:17.910Z,990.74
2023-05-09T05:45:18.107Z,990.73
2023-05-09T05:46:17.862Z,990.72
2023-05-09T05:47:17.671Z,990.76
2023-05-09T05:48:17.627Z,990.77
2023-05-09T05:49:17.556Z,990.76
2023-05-09T05:50:18.389Z,990.74
2023-05-09T05:51:17.493Z,990.74
2023-05-09T05:52:17.328Z,990.76
2023-05-09T05:56:16.978Z,990.72
2023-05-09T05:57:16.902Z,990.73
2023-05-09T05:58:16.822Z,990.74
2023-05-09T06:00:39.255Z,990.76
2023-05-09T06:01:39.258Z,990.81
2023-05-09T06:02:39.212Z,990.79
2023-05-09T06:03:39.132Z,990.80
2023-05-09T06:04:38.949Z,990.80
2023-05-09T06:05:39.075Z,990.74
2023-05-09T06:06:40.271Z,990.77
2023-05-09T06:08:38.853Z,990.77
2023-05-09T06:09:38.574Z,990.76
2023-05-09T06:10:38.498Z,990.72
2023-05-09T06:11:38.449Z,990.72
2023-05-09T06:12:38.355Z,990.70
2023-05-09T06:13:38.268Z,990.68
2023-05-09T06:14:38.219Z,990.67
2023-05-09T06:15:38.115Z,990.68
2023-05-09T06:16:38.053Z,990.62
2023-05-09T06:17:38.090Z,990.64
2023-05-09T06:18:37.908Z,990.61
2023-05-09T06:19:37.867Z,990.63
2023-05-09T06:20:38.122Z,990.63
2023-05-09T06:22:37.746Z,990.63
2023-05-09T06:23:40.612Z,990.59
2023-05-09T06:26:37.514Z,990.61
2023-05-09T06:27:38.203Z,990.60
2023-05-09T06:28:37.209Z,990.64
2023-05-09T06:30:37.314Z,990.63
2023-05-09T06:32:37.083Z,990.59
2023-05-09T06:33:36.797Z,990.57
2023-05-09T06:34:37.014Z,990.54
2023-05-09T06:36:36.566Z,990.56
2023-05-09T06:38:36.531Z,990.51
2023-05-09T06:42:36.314Z,990.51
2023-05-09T06:45:36.147Z,990.50
2023-05-09T06:47:53.510Z,990.45
2023-05-09T06:48:53.397Z,990.46
2023-05-09T06:49:53.607Z,990.46
2023-05-09T06:50:53.229Z,990.46
2023-05-09T06:51:53.167Z,990.41
2023-05-09T06:52:53.096Z,990.42
2023-05-09T06:53:53.125Z,990.41
2023-05-09T06:54:52.925Z,990.42
2023-05-09T06:55:52.853Z,990.40
2023-05-09T06:56:52.779Z,990.38
2023-05-09T06:57:52.705Z,990.32
2023-05-09T06:58:52.632Z,990.34
2023-05-09T06:59:52.566Z,990.34
2023-05-09T07:00:52.474Z,990.36
2023-05-09T07:01:52.452Z,990.33
2023-05-09T07:02:52.368Z,990.35
2023-05-09T07:03:52.281Z,990.33
2023-05-09T07:04:52.222Z,990.35
2023-05-09T07:05:52.104Z,990.37
2023-05-09T07:06:52.088Z,990.33
2023-05-09T07:07:51.962Z,990.33
2023-05-09T07:08:51.878Z,990.30
2023-05-09T07:09:55.222Z,990.31
2023-05-09T07:10:51.926Z,990.32
2023-05-09T07:11:51.654Z,990.29
2023-05-09T07:12:51.604Z,990.27
2023-05-09T07:13:51.502Z,990.28
2023-05-09T07:14:51.426Z,990.26
2023-05-09T07:15:51.384Z,990.28
2023-05-09T07:16:51.314Z,990.27
2023-05-09T07:44:21.424Z,989.86
2023-05-09T07:45:23.690Z,989.90
2023-05-09T07:46:21.168Z,989.88
2023-05-09T07:53:29.021Z,989.72
2023-05-09T08:04:22.562Z,989.75
2023-05-09T08:05:19.524Z,989.74
2023-05-09T08:06:19.448Z,989.74
2023-05-09T08:07:19.375Z,989.72
2023-05-09T08:08:19.294Z,989.70
2023-05-09T08:09:19.227Z,989.72
2023-05-09T08:10:19.147Z,989.71
2023-05-09T08:11:19.073Z,989.72
2023-05-09T08:12:19.005Z,989.70
2023-05-09T08:13:19.036Z,989.73
2023-05-09T08:14:18.859Z,989.70
2023-05-09T08:15:18.778Z,989.70
2023-05-09T08:16:18.737Z,989.69
2023-05-09T08:17:18.634Z,989.68
2023-05-09T08:18:18.677Z,989.64
2023-05-09T08:19:18.840Z,989.65
2023-05-09T08:20:18.536Z,989.61
2023-05-09T08:21:19.671Z,989.57
2023-05-09T08:25:56.218Z,989.56
2023-05-09T08:26:56.447Z,989.51
2023-05-09T08:28:55.991Z,989.53
2023-05-09T08:29:55.911Z,989.49
2023-05-09T08:30:56.071Z,989.51
2023-05-09T08:31:55.791Z,989.51
2023-05-09T08:32:55.976Z,989.50
2023-05-09T08:33:55.630Z,989.50
2023-05-09T08:34:55.505Z,989.45
2023-05-09T08:35:55.546Z,989.47
2023-05-09T08:39:55.154Z,989.46
2023-05-09T08:40:55.067Z,989.46
2023-05-09T08:41:54.984Z,989.44
2023-05-09T08:42:54.916Z,989.40
2023-05-09T08:43:54.838Z,989.40
2023-05-09T08:44:54.768Z,989.40
2023-05-09T08:45:54.688Z,989.40
2023-05-09T08:46:54.747Z,989.39
2023-05-09T08:47:54.588Z,989.39
2023-05-09T08:48:55.883Z,989.37
2023-05-09T08:49:54.427Z,989.34
2023-05-09T08:50:54.624Z,989.35
2023-05-09T08:51:54.357Z,989.33
2023-05-09T08:52:54.612Z,989.31
2023-05-09T08:54:54.021Z,989.26
2023-05-09T08:55:54.196Z,989.20
2023-05-09T08:56:53.911Z,989.19
2023-05-09T08:57:54.039Z,989.22
2023-05-09T08:58:53.727Z,989.25
2023-05-09T08:59:53.685Z,989.23
2023-05-09T09:01:53.553Z,989.25
2023-05-09T09:02:53.732Z,989.25
2023-05-09T09:03:53.565Z,989.26
2023-05-09T09:04:53.322Z,989.31
2023-05-09T09:05:53.214Z,989.25
2023-05-09T09:06:53.165Z,989.24
2023-05-09T09:07:53.173Z,989.21
2023-05-09T09:08:52.984Z,989.24
2023-05-09T09:09:52.911Z,989.17
2023-05-09T09:10:52.843Z,989.19
2023-05-09T09:11:52.763Z,989.16
2023-05-09T09:12:53.052Z,989.17
2023-05-09T09:13:52.634Z,989.16
2023-05-09T09:14:52.543Z,989.16
2023-05-09T09:15:52.473Z,989.12
2023-05-09T09:16:52.502Z,989.15
2023-05-09T09:17:52.324Z,989.12
2023-05-09T09:18:52.248Z,989.03
2023-05-09T09:19:52.172Z,989.03
2023-05-09T09:20:52.110Z,989.04
2023-05-09T09:21:52.225Z,989.02
2023-05-09T09:22:51.950Z,989.07
2023-05-09T09:23:51.999Z,988.99
2023-05-09T09:24:51.802Z,988.97
2023-05-09T09:25:51.730Z,988.97
2023-05-09T09:26:51.660Z,988.97
2023-05-09T09:27:51.588Z,988.90
2023-05-09T09:28:51.510Z,988.93
2023-05-09T09:29:51.435Z,988.91
2023-05-09T09:30:51.367Z,988.90
2023-05-09T09:31:51.479Z,988.86
2023-05-09T09:32:51.237Z,988.86
2023-05-09T09:33:51.160Z,988.82
2023-05-09T09:34:51.282Z,988.87
2023-05-09T09:35:51.022Z,988.80
2023-05-09T09:36:50.928Z,988.79
2023-05-09T09:37:50.855Z,988.79
2023-05-09T09:38:50.775Z,988.79
2023-05-09T09:39:50.873Z,988.75
2023-05-09T09:40:50.629Z,988.79
2023-05-09T09:41:50.555Z,988.76
2023-05-09T09:42:50.476Z,988.72
2023-05-09T09:43:50.408Z,988.71
2023-05-09T09:44:50.335Z,988.69
2023-05-09T09:45:50.311Z,988.75
2023-05-09T09:46:50.869Z,988.70
2023-05-09T09:47:50.159Z,988.73
2023-05-09T09:48:50.042Z,988.73
2023-05-09T09:49:49.986Z,988.77
2023-05-09T09:50:49.895Z,988.73
2023-05-09T09:58:49.473Z,988.61
2023-05-09T09:59:49.284Z,988.56
2023-05-09T10:00:49.160Z,988.54
2023-05-09T10:01:49.143Z,988.53
2023-05-09T10:02:49.063Z,988.53
2023-05-09T10:03:49.135Z,988.51
2023-05-09T10:04:48.873Z,988.50
2023-05-09T10:05:48.795Z,988.51
2023-05-09T10:19:56.995Z,988.32
2023-05-09T10:20:56.798Z,988.29
2023-05-09T10:21:56.726Z,988.32
2023-05-09T10:22:56.656Z,988.29
2023-05-09T10:23:56.585Z,988.28
2023-05-09T10:24:57.686Z,988.28
2023-05-09T10:25:56.443Z,988.28
2023-05-09T10:26:56.363Z,988.29
2023-05-09T10:27:56.442Z,988.24
2023-05-09T10:28:56.216Z,988.23
2023-05-09T10:29:56.143Z,988.21
2023-05-09T10:30:56.090Z,988.21
2023-05-09T10:31:56.021Z,988.13
2023-05-09T10:32:56.047Z,988.12
2023-05-09T10:34:38.335Z,988.12
2023-05-09T10:35:38.377Z,988.12
2023-05-09T10:36:38.193Z,988.05
2023-05-09T10:37:38.124Z,988.09
2023-05-09T10:38:38.049Z,988.08
2023-05-09T10:39:37.968Z,988.04
2023-05-09T10:40:37.898Z,988.02
2023-05-09T10:41:37.832Z,988.02
2023-05-09T10:42:37.749Z,987.99
2023-05-09T10:43:37.679Z,988.01
2023-05-09T10:44:37.620Z,988.00
2023-05-09T10:45:37.530Z,987.99
2023-05-09T10:46:37.457Z,987.96
2023-05-09T10:47:37.427Z,987.96
2023-05-09T10:48:37.327Z,987.93
2023-05-09T10:49:37.555Z,987.91
2023-05-09T10:50:37.163Z,987.88
2023-05-09T10:51:37.217Z,987.87
2023-05-09T10:52:37.021Z,987.84
2023-05-09T10:53:36.948Z,987.82
2023-05-09T10:54:37.220Z,987.83
2023-05-09T10:55:36.800Z,987.86
2023-05-09T10:56:36.730Z,987.83
2023-05-09T10:57:36.679Z,987.76
2023-05-09T10:58:36.665Z,987.75
2023-05-09T10:59:36.584Z,987.72
2023-05-09T11:00:36.481Z,987.67
2023-05-09T11:01:36.417Z,987.63
2023-05-09T11:02:36.314Z,987.62
2023-05-09T11:03:36.333Z,987.51
2023-05-09T11:05:18.637Z,987.51
2023-05-09T11:06:18.561Z,987.50
2023-05-09T11:07:18.618Z,987.46
2023-05-09T11:08:18.415Z,987.49
2023-05-09T11:09:18.345Z,987.44
2023-05-09T11:10:18.281Z,987.42
2023-05-09T11:11:18.198Z,987.43
2023-05-09T11:12:18.127Z,987.41
2023-05-09T11:13:18.244Z,987.44
2023-05-09T11:14:17.980Z,987.45
2023-05-09T11:15:17.920Z,987.39
2023-05-09T11:16:17.873Z,987.38
2023-05-09T11:17:17.763Z,987.40
2023-05-09T11:18:18.925Z,987.36
2023-05-09T11:19:17.620Z,987.34
2023-05-09T11:20:17.894Z,987.34
2023-05-09T11:21:17.471Z,987.34
2023-05-09T11:22:17.403Z,987.31
2023-05-09T11:23:17.588Z,987.29
2023-05-09T11:24:17.260Z,987.28
2023-05-09T11:25:17.384Z,987.28
2023-05-09T11:26:17.117Z,987.24
2023-05-09T11:27:17.045Z,987.22
2023-05-09T11:28:16.970Z,987.22
2023-05-09T11:29:16.897Z,987.23
2023-05-09T11:30:16.901Z,987.24
2023-05-09T11:31:16.773Z,987.20
2023-05-09T11:32:16.734Z,987.18
2023-05-09T11:33:16.613Z,987.14
2023-05-09T11:34:16.536Z,987.13
2023-05-09T11:35:16.907Z,987.11
2023-05-09T11:36:16.394Z,987.15
2023-05-09T11:37:16.324Z,987.13
2023-05-09T11:38:16.256Z,987.12
2023-05-09T11:39:16.299Z,987.11
2023-05-09T11:40:16.172Z,987.06
2023-05-09T11:41:16.074Z,987.05
2023-05-09T11:42:15.964Z,987.06
2023-05-09T11:43:16.042Z,987.02
2023-05-09T11:44:15.827Z,986.96
2023-05-09T11:45:15.900Z,986.96
2023-05-09T11:46:15.722Z,986.99
2023-05-09T11:47:15.605Z,986.99
2023-05-09T11:48:15.536Z,987.04
2023-05-09T11:49:15.469Z,987.00
2023-05-09T11:50:15.470Z,986.96
2023-05-09T11:51:15.336Z,986.94
2023-05-09T11:52:15.352Z,986.94
2023-05-09T11:53:15.184Z,986.99
2023-05-09T11:54:15.281Z,986.98
2023-05-09T11:55:15.417Z,986.96
2023-05-09T11:56:14.982Z,986.98
2023-05-09T11:57:14.909Z,986.90
2023-05-09T11:58:14.825Z,986.81
2023-05-09T11:59:14.804Z,986.82
2023-05-09T12:00:14.681Z,986.80
2023-05-09T12:01:14.623Z,986.83
2023-05-09T12:02:14.585Z,986.76
2023-05-09T12:03:14.560Z,986.77
2023-05-09T12:04:14.474Z,986.77
2023-05-09T12:05:14.570Z,986.73
2023-05-09T12:06:14.259Z,986.74
2023-05-09T12:07:14.190Z,986.82
2023-05-09T12:08:14.124Z,986.71
2023-05-09T12:09:14.047Z,986.69
2023-05-09T12:10:13.976Z,986.66
2023-05-09T12:11:14.034Z,986.72
2023-05-09T12:12:13.849Z,986.61
2023-05-09T12:13:13.827Z,986.59
2023-05-09T12:14:13.714Z,986.57
2023-05-09T12:15:14.043Z,986.55
2023-05-09T12:16:13.558Z,986.49
2023-05-09T12:17:13.490Z,986.51
2023-05-09T12:18:13.431Z,986.48
2023-05-09T12:19:13.341Z,986.45
2023-05-09T12:20:13.284Z,986.51
2023-05-09T12:21:13.204Z,986.49
2023-05-09T12:22:13.130Z,986.45
2023-05-09T12:23:13.058Z,986.45
2023-05-09T12:24:12.986Z,986.39
2023-05-09T12:25:12.982Z,986.52
2023-05-09T12:26:12.846Z,986.35
2023-05-09T12:27:12.901Z,986.30
2023-05-09T12:28:12.702Z,986.31
2023-05-09T12:29:12.783Z,986.27
2023-05-09T12:30:12.616Z,986.31
2023-05-09T12:31:12.515Z,986.41
2023-05-09T12:32:12.426Z,986.30
2023-05-09T12:33:12.401Z,986.24
2023-05-09T12:34:12.282Z,986.18
2023-05-09T12:35:12.495Z,986.17
2023-05-09T12:36:12.139Z,986.29
2023-05-09T12:37:12.068Z,986.21
2023-05-09T12:38:12.052Z,986.15
2023-05-09T12:39:11.931Z,986.34
2023-05-09T12:40:11.867Z,986.15
2023-05-09T12:41:26.094Z,986.09
2023-05-09T12:44:11.778Z,986.07
2023-05-09T12:45:11.820Z,986.28
2023-05-09T12:46:11.440Z,986.19
2023-05-09T12:47:11.508Z,986.27
2023-05-09T12:48:11.328Z,986.28
2023-05-09T12:51:36.902Z,986.39
2023-05-09T12:52:43.952Z,985.89
2023-05-09T12:53:36.825Z,985.81
2023-05-09T12:54:37.533Z,986.30
2023-05-09T12:55:36.825Z,986.25
2023-05-09T12:56:36.572Z,985.88
2023-05-09T12:57:36.491Z,985.85
2023-05-09T12:58:36.416Z,985.79
2023-05-09T12:59:36.476Z,985.88
2023-05-09T13:00:36.299Z,986.25
2023-05-09T13:01:36.221Z,986.27
2023-05-09T13:02:36.402Z,986.22
2023-05-09T13:03:36.348Z,986.24
2023-05-09T13:04:36.013Z,985.74
2023-05-09T13:05:35.964Z,985.80
2023-05-09T13:06:36.053Z,985.65
2023-05-09T13:07:38.437Z,985.62
2023-05-09T13:10:09.287Z,985.59
2023-05-09T13:11:15.652Z,985.64
2023-05-09T13:12:08.144Z,985.55
2023-05-09T13:13:08.110Z,985.64
2023-05-09T13:14:08.222Z,985.72
2023-05-09T13:15:08.075Z,985.68
2023-05-09T13:16:09.524Z,985.73
2023-05-09T13:17:07.862Z,985.80
2023-05-09T13:18:07.752Z,985.54
2023-05-09T13:19:07.677Z,985.42
2023-05-09T13:20:07.648Z,985.40
2023-05-09T13:21:07.526Z,985.41
2023-05-09T13:22:07.562Z,985.37
2023-05-09T13:23:07.390Z,985.38
2023-05-09T13:24:07.329Z,985.51
2023-05-09T13:25:07.260Z,985.68
2023-05-09T13:26:07.188Z,985.63
2023-05-09T13:27:07.118Z,985.63
2023-05-09T13:28:07.050Z,985.60
2023-05-09T13:29:06.990Z,985.57
2023-05-09T13:30:06.914Z,985.54
2023-05-09T13:31:07.109Z,985.55
2023-05-09T13:32:06.929Z,985.48
2023-05-09T13:33:24.033Z,985.55
2023-05-09T13:34:06.650Z,985.48
2023-05-09T13:35:06.752Z,985.40
2023-05-09T13:36:06.517Z,985.47
2023-05-09T13:37:06.444Z,985.31
2023-05-09T13:38:07.593Z,985.52
2023-05-09T13:39:06.326Z,985.43
2023-05-09T13:40:06.250Z,985.45
2023-05-09T13:41:06.185Z,985.42
2023-05-09T13:42:07.129Z,985.25
2023-05-09T13:43:59.750Z,984.96
2023-05-09T13:44:58.677Z,984.94
2023-05-09T13:45:58.643Z,984.94
2023-05-09T13:46:59.677Z,984.98
2023-05-09T13:47:58.516Z,984.86
2023-05-09T13:48:58.415Z,984.84
2023-05-09T13:49:58.348Z,984.93
2023-05-09T13:50:58.280Z,984.98
2023-05-09T13:51:58.216Z,985.06
2023-05-09T13:53:01.789Z,985.02
2023-05-09T13:54:15.523Z,985.00
2023-05-09T13:54:58.016Z,985.02
2023-05-09T13:55:57.949Z,984.88
2023-05-09T13:56:57.885Z,984.91
2023-05-09T13:57:57.820Z,984.96
2023-05-09T13:58:57.750Z,984.88
2023-05-09T13:59:57.704Z,984.88
2023-05-09T14:00:57.660Z,984.88
2023-05-09T14:01:57.623Z,984.91
2023-05-09T14:02:57.696Z,984.76
2023-05-09T14:03:57.499Z,984.72
2023-05-09T14:04:57.358Z,984.71
2023-05-09T14:05:57.299Z,984.66
2023-05-09T14:06:57.225Z,984.63
2023-05-09T14:15:32.355Z,984.42
2023-05-09T14:16:32.456Z,984.44
2023-05-09T14:17:32.232Z,984.43
2023-05-09T14:18:32.260Z,984.41
2023-05-09T14:20:49.585Z,984.37
2023-05-09T14:21:49.528Z,984.36
2023-05-09T14:22:49.457Z,984.37
2023-05-09T14:25:36.815Z,984.25
2023-05-09T14:26:36.736Z,984.30
2023-05-09T14:27:36.664Z,984.24
2023-05-09T14:28:36.593Z,984.29
2023-05-09T14:29:37.328Z,984.25
2023-05-09T14:30:36.450Z,984.22
2023-05-09T14:31:36.396Z,984.19
2023-05-09T14:32:36.317Z,984.20
2023-05-09T14:33:36.410Z,984.13
2023-05-09T14:36:21.206Z,984.12
2023-05-09T14:38:06.021Z,984.07
2023-05-09T14:41:05.939Z,984.05
2023-05-09T14:42:05.867Z,983.97
2023-05-09T14:43:05.884Z,983.92
2023-05-09T14:44:05.726Z,983.90
2023-05-09T14:45:05.656Z,983.91
2023-05-09T14:47:05.585Z,983.85
2023-05-09T14:48:51.066Z,983.88
2023-05-09T14:49:47.852Z,983.88
2023-05-09T14:50:47.779Z,983.85
2023-05-09T14:51:47.708Z,983.85
2023-05-09T14:53:34.246Z,983.79
2023-05-09T14:54:30.049Z,983.75
2023-05-09T14:55:29.994Z,983.75
2023-05-09T14:56:29.906Z,983.71
2023-05-09T14:57:30.034Z,983.70
2023-05-09T14:58:29.762Z,983.73
2023-05-09T14:59:29.722Z,983.70
2023-05-09T15:00:29.873Z,983.69
2023-05-09T15:01:29.615Z,983.70
2023-05-09T15:02:29.536Z,983.68
2023-05-09T15:04:22.004Z,983.72
2023-05-09T15:05:21.831Z,983.66
2023-05-09T15:06:21.750Z,983.66
2023-05-09T15:07:21.675Z,983.68
2023-05-09T15:08:21.604Z,983.59
2023-05-09T15:09:21.596Z,983.57
2023-05-09T15:10:21.873Z,983.56
2023-05-09T15:11:21.388Z,983.55
2023-05-09T15:12:21.314Z,983.60
2023-05-09T15:13:21.307Z,983.60
2023-05-09T15:14:21.169Z,983.56
2023-05-09T15:15:21.133Z,983.59
2023-05-09T15:16:21.091Z,983.58
2023-05-09T15:17:21.003Z,983.61
2023-05-09T15:19:23.954Z,983.60
2023-05-09T15:20:20.769Z,983.63
2023-05-09T15:21:20.901Z,983.57
2023-05-09T15:22:20.633Z,983.54
2023-05-09T15:23:20.582Z,983.54
2023-05-09T15:24:20.452Z,983.50
2023-05-09T15:25:20.386Z,983.50
2023-05-09T15:26:20.298Z,983.49
2023-05-09T15:27:20.222Z,983.47
2023-05-09T15:28:20.151Z,983.48
2023-05-09T15:29:20.086Z,983.47
2023-05-09T15:31:22.945Z,983.42
2023-05-09T15:32:22.995Z,983.43
2023-05-09T15:33:22.774Z,983.42
2023-05-09T15:34:22.687Z,983.44
2023-05-09T15:35:22.651Z,983.43
2023-05-09T15:36:22.543Z,983.44
2023-05-09T15:37:22.472Z,983.41
2023-05-09T15:38:22.400Z,983.41
2023-05-09T15:39:22.322Z,983.36
2023-05-09T15:40:22.248Z,983.41
2023-05-09T15:41:22.176Z,983.40
2023-05-09T15:42:22.112Z,983.39
2023-05-09T15:43:22.039Z,983.38
2023-05-09T15:44:21.956Z,983.36
2023-05-09T15:45:21.884Z,983.36
2023-05-09T15:46:21.855Z,983.36
2023-05-09T15:47:21.844Z,983.35
2023-05-09T15:48:21.665Z,983.31
2023-05-09T15:49:21.622Z,983.31
2023-05-09T15:50:21.521Z,983.28
2023-05-09T15:51:21.572Z,983.27
2023-05-09T15:53:21.296Z,983.29
2023-05-09T15:54:27.694Z,983.24
2023-05-09T15:55:21.184Z,983.22
2023-05-09T15:56:21.078Z,983.23
2023-05-09T15:57:21.004Z,983.21
2023-05-09T15:58:21.128Z,983.24
2023-05-09T15:59:20.855Z,983.22
2023-05-09T16:00:20.784Z,983.21
2023-05-09T16:01:20.753Z,983.23
2023-05-09T16:02:20.671Z,983.25
2023-05-09T16:05:08.283Z,983.25
2023-05-09T16:06:07.910Z,983.26
2023-05-09T16:07:08.302Z,983.23
2023-05-09T16:08:07.757Z,983.22
2023-05-09T16:09:07.681Z,983.25
2023-05-09T16:10:07.619Z,983.25
2023-05-09T16:11:07.532Z,983.26
2023-05-09T16:12:07.474Z,983.25
2023-05-09T16:13:07.471Z,983.32
2023-05-09T16:14:07.314Z,983.31
2023-05-09T16:15:07.282Z,983.30
2023-05-09T16:16:07.295Z,983.29
2023-05-09T16:17:07.095Z,983.27
2023-05-09T16:18:07.011Z,983.23
2023-05-09T16:19:06.938Z,983.21
2023-05-09T16:20:06.864Z,983.19
2023-05-09T16:21:06.856Z,983.20
2023-05-09T16:22:06.724Z,983.17
2023-05-09T16:23:07.192Z,983.21
2023-05-09T16:24:06.578Z,983.18
2023-05-09T16:25:06.490Z,983.19
2023-05-09T16:26:06.417Z,983.16
2023-05-09T16:27:06.342Z,983.19
2023-05-09T16:28:06.263Z,983.17
2023-05-09T16:29:06.293Z,983.14
2023-05-09T16:30:06.124Z,983.17
2023-05-09T16:31:06.106Z,983.21
2023-05-09T16:32:05.980Z,983.17
2023-05-09T16:33:05.930Z,983.16
2023-05-09T16:34:05.816Z,983.14
2023-05-09T16:35:05.746Z,983.14
2023-05-09T16:36:05.670Z,983.12
2023-05-09T16:37:05.592Z,983.09
2023-05-09T16:38:05.521Z,983.08
2023-05-09T16:39:05.557Z,983.04
2023-05-09T16:40:05.382Z,983.07
2023-05-09T16:41:05.596Z,983.05
2023-05-09T16:42:05.220Z,983.08
2023-05-09T16:43:05.145Z,983.07
2023-05-09T16:44:05.072Z,983.20
2023-05-09T16:45:05.011Z,983.16
2023-05-09T16:46:05.002Z,983.20
2023-05-09T16:47:04.853Z,983.18
2023-05-09T16:48:04.810Z,983.16
2023-05-09T16:49:04.693Z,983.17
2023-05-09T16:50:04.823Z,983.17
2023-05-09T16:51:04.543Z,983.16
2023-05-09T16:52:04.465Z,983.10
2023-05-09T16:53:04.399Z,983.11
2023-05-09T16:54:04.320Z,983.05
2023-05-09T16:55:04.275Z,983.06
2023-05-09T16:56:04.247Z,983.03
2023-05-09T16:57:04.092Z,983.02
2023-05-09T16:58:04.016Z,983.01
2023-05-09T16:59:03.949Z,983.00
2023-05-09T17:00:03.870Z,983.01
2023-05-09T17:01:03.830Z,982.99
2023-05-09T17:02:03.717Z,982.94
2023-05-09T17:03:03.703Z,982.92
2023-05-09T17:04:03.586Z,982.93
2023-05-09T17:05:03.506Z,982.96
2023-05-09T17:06:03.409Z,982.92
2023-05-09T17:07:03.335Z,982.94
2023-05-09T17:08:03.256Z,982.87